Time;durP1;ratioP1;P1;durP2;ratioP2;P2;SDS_P1;SDS_P2;PMS_P1;PMS_P2;Temp;Humidity;BMP_temperature;BMP_pressure;BME280_temperature;BME280_humidity;BME280_pressure;Samples;Min_cycle;Max_cycle;Signal;HPM_P1;HPM_P2
2022/04/26 03:37:12;;;;;;;5.85;5.35;;;;;;;9.31;88.07;100683.47;5023668;28;20729;-70
2022/04/26 03:39:38;;;;;;;5.00;4.72;;;;;;;9.30;88.15;100689.75;4993346;28;20009;-69
2022/04/26 03:42:04;;;;;;;5.88;5.38;;;;;;;9.18;90.40;100687.19;4988803;28;20045;-70
2022/04/26 03:44:29;;;;;;;6.35;5.90;;;;;;;9.18;90.62;100689.81;4989286;28;20624;-70
2022/04/26 03:46:55;;;;;;;6.10;5.70;;;;;;;9.17;89.95;100690.78;5019848;28;20855;-71
2022/04/26 03:49:21;;;;;;;5.97;5.45;;;;;;;9.30;89.94;100687.09;4987870;28;20033;-70
2022/04/26 03:51:46;;;;;;;6.03;5.57;;;;;;;9.31;89.26;100683.47;5001214;28;20907;-70
2022/04/26 03:54:12;;;;;;;6.05;5.60;;;;;;;9.20;88.12;100684.41;5010604;28;20109;-71
2022/04/26 03:56:37;;;;;;;5.68;5.38;;;;;;;9.19;88.66;100688.81;5017899;28;20937;-70
2022/04/26 03:59:03;;;;;;;6.05;5.55;;;;;;;9.11;88.93;100696.59;4988003;28;20128;-70
2022/04/26 04:01:28;;;;;;;5.68;5.38;;;;;;;9.18;88.98;100695.09;4961754;28;20002;-71
2022/04/26 04:03:54;;;;;;;6.43;5.82;;;;;;;9.20;88.74;100698.44;4959301;28;20012;-70
2022/04/26 04:06:19;;;;;;;6.28;5.88;;;;;;;9.28;89.20;100695.16;4972215;28;20010;-69
2022/04/26 04:08:45;;;;;;;6.10;5.60;;;;;;;9.47;89.34;100701.53;4972208;28;20018;-70
2022/04/26 04:11:10;;;;;;;6.30;5.88;;;;;;;9.52;89.34;100697.50;4973768;28;20436;-70
2022/04/26 04:13:36;;;;;;;6.95;5.65;;;;;;;9.42;88.49;100696.63;4958300;28;20024;-71
2022/04/26 04:16:01;;;;;;;7.20;6.03;;;;;;;9.24;88.37;100705.13;4968240;28;20013;-70
2022/04/26 04:21:11;;;;;;;6.15;5.65;;;;;;;9.31;88.86;100699.31;4997991;28;20739;-70
2022/04/26 04:23:37;;;;;;;6.30;5.82;;;;;;;9.42;89.07;100697.47;4973050;28;20029;-70
2022/04/26 04:26:02;;;;;;;6.22;5.82;;;;;;;9.40;88.72;100699.38;4990825;28;20014;-70
2022/04/26 04:28:28;;;;;;;6.60;6.10;;;;;;;9.44;88.45;100699.97;4973010;28;20311;-71
2022/04/26 04:30:53;;;;;;;7.20;6.60;;;;;;;9.25;87.43;100693.63;4957062;28;20578;-71
2022/04/26 04:33:19;;;;;;;6.72;6.22;;;;;;;9.43;87.95;100687.72;4976153;28;20024;-70
2022/04/26 04:35:44;;;;;;;9.60;6.95;;;;;;;9.41;88.08;100689.69;4978123;28;20048;-70
2022/04/26 04:38:10;;;;;;;7.40;6.82;;;;;;;9.32;88.34;100688.66;4957934;28;20061;-70
2022/04/26 04:40:35;;;;;;;7.30;6.45;;;;;;;9.24;88.88;100696.38;4955129;28;20309;-71
2022/04/26 04:43:00;;;;;;;7.10;6.60;;;;;;;9.24;89.33;100693.75;4964121;28;20993;-71
2022/04/26 04:45:26;;;;;;;7.40;6.90;;;;;;;9.26;89.45;100703.22;4947631;28;20997;-72
2022/04/26 04:47:51;;;;;;;7.63;6.93;;;;;;;9.30;89.49;100711.69;4941533;28;20512;-71
2022/04/26 04:50:17;;;;;;;7.93;7.32;;;;;;;9.41;90.21;100716.09;4960754;28;20045;-70
2022/04/26 04:52:42;;;;;;;8.55;7.57;;;;;;;9.32;90.31;100704.50;4933781;28;20050;-70
2022/04/26 04:55:08;;;;;;;9.07;8.20;;;;;;;9.29;89.81;100712.66;4943465;28;20387;-72
2022/04/26 04:57:34;;;;;;;8.60;7.90;;;;;;;9.28;90.00;100719.75;4941061;28;20861;-72
2022/04/26 05:00:00;;;;;;;9.35;8.57;;;;;;;9.35;90.20;100716.59;4961832;28;20006;-75
2022/04/26 05:02:25;;;;;;;8.88;8.07;;;;;;;9.31;89.90;100725.72;4942934;28;20013;-70
2022/04/26 05:04:50;;;;;;;8.55;7.82;;;;;;;9.35;90.23;100717.44;4974075;28;20289;-70
2022/04/26 05:07:16;;;;;;;7.55;6.93;;;;;;;9.30;89.90;100716.16;4964946;28;20803;-71
2022/04/26 05:09:41;;;;;;;7.90;7.28;;;;;;;9.44;89.35;100721.09;4954348;28;20362;-71
2022/04/26 05:12:07;;;;;;;7.97;7.28;;;;;;;9.46;89.00;100737.63;4960811;28;19998;-72
2022/04/26 05:14:33;;;;;;;7.78;7.15;;;;;;;9.43;88.88;100741.41;4940785;28;20007;-73
2022/04/26 05:16:58;;;;;;;7.78;7.28;;;;;;;9.37;88.88;100736.63;4940415;28;20788;-69
2022/04/26 05:19:24;;;;;;;7.93;7.28;;;;;;;9.36;89.37;100750.78;4976664;28;20021;-70
2022/04/26 05:21:49;;;;;;;10.40;7.93;;;;;;;9.26;90.23;100745.47;4935207;28;20010;-72
2022/04/26 05:26:59;;;;;;;9.10;8.25;;;;;;;9.41;90.13;100750.41;4967894;28;20028;-72
2022/04/26 05:29:24;;;;;;;8.40;7.68;;;;;;;9.40;89.97;100754.03;4968078;28;20006;-70
2022/04/26 05:31:50;;;;;;;8.27;7.30;;;;;;;9.47;89.80;100763.09;4956376;28;20014;-72
2022/04/26 05:34:15;;;;;;;8.23;7.53;;;;;;;9.44;89.81;100760.72;4957207;28;20009;-71
2022/04/26 05:36:40;;;;;;;8.88;8.13;;;;;;;9.47;89.15;100763.09;4939243;28;20967;-70
2022/04/26 05:39:06;;;;;;;9.65;8.75;;;;;;;9.49;89.69;100757.69;4955083;28;20508;-72
2022/04/26 05:41:31;;;;;;;9.60;8.70;;;;;;;9.51;90.17;100768.97;4973069;28;20017;-73
2022/04/26 05:43:56;;;;;;;11.45;10.40;;;;;;;9.50;89.97;100762.84;4992208;28;20010;-70
2022/04/26 05:46:22;;;;;;;12.45;11.13;;;;;;;9.50;90.68;100764.66;4962059;28;20025;-71
2022/04/26 05:48:47;;;;;;;13.07;11.77;;;;;;;9.44;91.05;100758.06;4976672;28;20021;-70
2022/04/26 05:51:13;;;;;;;14.15;11.73;;;;;;;9.48;89.91;100759.50;4993315;28;20505;-70
2022/04/26 05:53:38;;;;;;;13.50;12.23;;;;;;;9.52;90.34;100760.91;4995708;28;20313;-71
2022/04/26 05:56:08;;;;;;;13.15;11.95;;;;;;;9.55;90.68;100759.81;4978068;28;20089;-70
2022/04/26 05:58:34;;;;;;;14.27;12.70;;;;;;;9.51;91.40;100768.97;4978227;28;20529;-71
2022/04/26 06:00:59;;;;;;;14.40;13.00;;;;;;;9.50;91.08;100757.56;4990227;28;20700;-70
2022/04/26 06:03:25;;;;;;;15.15;13.68;;;;;;;9.58;90.52;100764.84;4978446;28;20033;-70
2022/04/26 06:05:50;;;;;;;15.43;14.02;;;;;;;9.54;90.20;100751.03;4975311;28;20022;-71
2022/04/26 06:08:16;;;;;;;17.13;15.27;;;;;;;9.54;90.52;100771.34;4982213;27;20060;-69
2022/04/26 06:10:42;;;;;;;19.50;16.60;;;;;;;9.51;91.49;100775.09;4990679;28;20172;-69
2022/04/26 06:13:10;;;;;;;19.23;17.33;;;;;;;9.42;91.66;100766.13;4997299;28;20005;-71
2022/04/26 06:15:35;;;;;;;21.10;18.90;;;;;;;9.56;91.50;100766.75;4984207;28;20047;-69
2022/04/26 06:18:00;;;;;;;25.40;20.48;;;;;;;9.58;91.57;100776.25;5000087;28;20045;-69
2022/04/26 06:20:26;;;;;;;24.50;21.65;;;;;;;9.55;91.79;100771.22;5015858;28;20870;-71
2022/04/26 06:22:51;;;;;;;25.52;22.30;;;;;;;9.61;92.05;100770.69;4983976;28;20608;-71
2022/04/26 06:25:17;;;;;;;26.08;23.27;;;;;;;9.55;91.26;100760.66;4966110;28;20125;-72
2022/04/26 06:27:43;;;;;;;25.33;22.63;;;;;;;9.65;91.28;100762.53;4985132;28;20017;-71
2022/04/26 06:30:08;;;;;;;26.77;24.05;;;;;;;9.72;91.33;100766.31;4982385;28;20109;-71
2022/04/26 06:32:34;;;;;;;28.90;25.92;;;;;;;9.76;89.86;100768.56;5017798;28;20020;-70
2022/04/26 06:34:59;;;;;;;31.13;26.52;;;;;;;9.77;89.65;100764.97;5006474;28;20284;-72
2022/04/26 06:37:25;;;;;;;33.42;27.95;;;;;;;9.78;89.31;100771.06;4999574;28;20829;-71
2022/04/26 06:39:51;;;;;;;34.17;29.02;;;;;;;9.80;89.18;100771.78;4983596;28;20018;-71
2022/04/26 06:42:17;;;;;;;33.90;28.95;;;;;;;9.89;88.83;100776.28;4993727;28;20074;-70
2022/04/26 06:44:42;;;;;;;34.60;29.17;;;;;;;9.90;87.48;100780.59;5018533;28;20363;-71
2022/04/26 06:47:08;;;;;;;38.17;30.48;;;;;;;9.96;87.37;100782.69;4998826;28;20016;-71
2022/04/26 06:49:33;;;;;;;36.08;29.55;;;;;;;9.92;87.74;100789.22;5019039;28;20948;-71
2022/04/26 06:51:59;;;;;;;36.60;30.10;;;;;;;9.92;87.37;100785.75;4999878;28;20021;-71
2022/04/26 06:54:24;;;;;;;42.38;30.75;;;;;;;9.90;87.88;100791.16;5004517;28;20050;-70
2022/04/26 06:56:49;;;;;;;37.03;29.60;;;;;;;9.99;86.97;100799.28;5008325;28;20029;-70
2022/04/26 06:59:15;;;;;;;37.35;29.17;;;;;;;9.98;86.91;100803.72;5025797;28;20628;-72
2022/04/26 07:01:40;;;;;;;34.45;28.25;;;;;;;9.99;86.14;100809.88;5030265;28;20397;-72
2022/04/26 07:04:07;;;;;;;37.05;29.15;;;;;;;10.05;85.01;100804.03;5047457;28;20010;-73
2022/04/26 07:06:32;;;;;;;33.80;28.38;;;;;;;9.99;85.05;100805.41;5012657;28;20017;-70
2022/04/26 07:08:57;;;;;;;37.00;29.15;;;;;;;9.92;85.37;100815.66;5013608;28;20009;-71
2022/04/26 07:11:23;;;;;;;33.22;27.17;;;;;;;9.95;84.77;100810.09;5010384;27;20752;-72
2022/04/26 07:13:49;;;;;;;35.85;28.75;;;;;;;9.96;84.76;100813.59;4975399;28;20625;-72
2022/04/26 07:16:14;;;;;;;41.70;28.95;;;;;;;10.02;84.47;100815.72;4976039;28;20894;-72
2022/04/26 07:18:39;;;;;;;37.28;28.02;;;;;;;9.90;85.35;100825.53;4978121;28;20033;-71
2022/04/26 07:21:05;;;;;;;37.03;28.00;;;;;;;9.91;85.25;100818.44;4997447;28;20027;-70
2022/04/26 07:23:30;;;;;;;37.40;27.67;;;;;;;9.86;85.77;100821.47;4977244;28;20851;-71
2022/04/26 07:25:55;;;;;;;36.03;28.25;;;;;;;9.86;86.17;100821.47;4977368;28;20341;-71
2022/04/26 07:28:22;;;;;;;37.60;28.25;;;;;;;9.70;85.09;100819.31;4976500;28;20036;-72
2022/04/26 07:30:47;;;;;;;33.97;25.70;;;;;;;9.76;84.78;100831.16;5013678;28;20783;-72
2022/04/26 07:35:57;;;;;;;33.35;25.67;;;;;;;9.84;84.00;100822.56;5010084;28;20189;-72
2022/04/26 07:38:22;;;;;;;35.17;25.95;;;;;;;9.86;84.32;100834.69;4992644;28;20574;-71
2022/04/26 07:40:48;;;;;;;34.05;25.52;;;;;;;9.93;83.59;100830.56;4992949;28;20006;-69
2022/04/26 07:43:13;;;;;;;32.55;25.48;;;;;;;9.95;83.68;100841.81;4996685;28;20005;-71
2022/04/26 07:45:39;;;;;;;31.98;25.73;;;;;;;9.95;84.13;100846.28;4962749;28;20266;-71
2022/04/26 07:48:05;;;;;;;31.13;25.25;;;;;;;9.95;84.80;100847.09;4994555;28;20002;-71
2022/04/26 07:50:31;;;;;;;31.45;24.70;;;;;;;10.14;83.09;100850.84;4996064;28;20017;-71
2022/04/26 07:52:57;;;;;;;31.55;24.42;;;;;;;10.10;83.05;100838.88;4984713;28;20091;-71
2022/04/26 07:55:22;;;;;;;29.85;23.75;;;;;;;10.26;83.53;100838.38;5013216;28;20148;-73
2022/04/26 07:57:48;;;;;;;32.40;23.17;;;;;;;10.36;81.02;100857.78;4979534;28;20056;-71
2022/04/26 08:00:14;;;;;;;30.52;22.80;;;;;;;10.45;81.71;100854.34;4978108;28;20035;-72
2022/04/26 08:02:39;;;;;;;30.83;22.42;;;;;;;10.54;81.36;100852.72;4981213;28;20053;-69
2022/04/26 08:05:05;;;;;;;28.88;22.48;;;;;;;10.70;80.95;100857.50;4978887;28;20504;-71
2022/04/26 08:07:34;;;;;;;27.10;22.00;;;;;;;11.02;80.15;100850.34;4972766;28;20014;-72
2022/04/26 08:09:59;;;;;;;31.98;23.75;;;;;;;11.09;78.91;100856.75;4960036;28;20025;-70
2022/04/26 08:12:24;;;;;;;26.13;21.35;;;;;;;11.17;78.81;100854.25;4977095;28;20522;-71
2022/04/26 08:14:50;;;;;;;28.23;21.90;;;;;;;11.02;79.62;100866.22;4960970;28;20098;-72
2022/04/26 08:17:15;;;;;;;31.27;22.83;;;;;;;10.98;80.65;100866.50;4959904;28;20115;-71
2022/04/26 08:19:41;;;;;;;28.48;22.05;;;;;;;10.81;80.24;100880.38;4962342;28;20522;-71
2022/04/26 08:22:07;;;;;;;24.17;20.15;;;;;;;10.80;80.30;100884.84;5001921;28;20037;-69
2022/04/26 08:27:22;;;;;;;25.45;20.83;;;;;;;10.59;79.89;100890.22;5002359;28;20407;-70
2022/04/26 08:29:47;;;;;;;23.73;20.30;;;;;;;10.52;80.57;100899.66;4985569;28;20021;-69
2022/04/26 08:32:14;;;;;;;23.58;21.10;;;;;;;10.47;80.35;100904.50;5019601;28;20014;-71
2022/04/26 08:34:40;;;;;;;25.98;21.08;;;;;;;10.43;80.82;100914.47;4985761;28;20074;-71
2022/04/26 08:37:05;;;;;;;25.50;20.33;;;;;;;10.40;79.90;100914.75;4997660;28;20029;-74
2022/04/26 08:39:31;;;;;;;24.38;20.45;;;;;;;10.35;79.53;100911.69;4981752;28;20248;-69
2022/04/26 08:41:57;;;;;;;24.30;20.60;;;;;;;10.26;80.34;100918.53;5010055;28;20290;-70
2022/04/26 08:44:25;;;;;;;23.38;20.80;;;;;;;10.35;79.36;100916.97;4989399;28;20083;-73
2022/04/26 08:52:19;;;;;;;23.35;20.38;;;;;;;10.23;80.56;100929.38;4982042;28;20087;-70
2022/04/26 08:54:44;;;;;;;23.92;20.42;;;;;;;10.29;79.96;100941.25;4998207;28;20022;-70
2022/04/26 08:57:11;;;;;;;25.98;21.50;;;;;;;10.15;80.53;100942.41;4981249;28;20533;-71
2022/04/26 08:59:45;;;;;;;25.17;20.13;;;;;;;10.19;80.59;100941.19;4999787;28;20388;-71
2022/04/26 09:02:15;;;;;;;;;;;;;;;10.22;80.25;100942.75;4981458;28;20340;-70
2022/04/26 09:04:41;;;;;;;24.45;20.13;;;;;;;10.30;80.11;100946.41;4979697;28;20394;-71
2022/04/26 09:07:09;;;;;;;23.27;20.30;;;;;;;10.53;79.06;100948.09;4979904;28;20025;-70
2022/04/26 09:09:37;;;;;;;23.08;19.90;;;;;;;10.64;78.71;100954.13;4979414;28;20251;-72
2022/04/26 09:12:03;;;;;;;24.67;19.88;;;;;;;10.68;77.80;100953.91;4984415;28;20024;-70
2022/04/26 09:14:34;;;;;;;22.63;19.67;;;;;;;10.74;77.40;100961.31;4986865;28;21032;-71
2022/04/26 09:17:06;;;;;;;26.00;20.05;;;;;;;10.93;76.71;100963.22;5018013;28;20017;-72
2022/04/26 09:19:43;;;;;;;24.98;20.73;;;;;;;10.99;78.00;100967.97;4977452;28;20018;-73
2022/04/26 09:22:15;;;;;;;24.25;20.48;;;;;;;11.13;75.65;100975.53;5011901;28;20395;-71
2022/04/26 09:25:06;;;;;;;22.17;19.13;;;;;;;11.29;76.37;100972.34;5013680;28;20253;-72
2022/04/26 09:27:36;;;;;;;22.38;19.50;;;;;;;11.42;75.04;100973.91;5017818;28;20013;-72
2022/04/26 09:30:08;;;;;;;25.25;20.10;;;;;;;11.57;74.59;100983.16;5003712;28;20006;-71
2022/04/26 09:32:47;;;;;;;27.63;21.13;;;;;;;11.65;73.50;100985.94;4998645;28;21122;-73
2022/04/26 09:35:22;;;;;;;27.98;20.85;;;;;;;11.81;73.41;100981.91;4998339;28;20281;-71
2022/04/26 09:37:48;;;;;;;27.73;21.75;;;;;;;11.81;72.72;100984.56;4996887;28;20041;-70
2022/04/26 09:40:13;;;;;;;28.40;22.65;;;;;;;12.03;71.75;100991.44;5007940;27;20577;-72
2022/04/26 09:42:39;;;;;;;30.02;22.58;;;;;;;12.07;72.05;100989.34;4974294;28;20011;-72
2022/04/26 09:45:09;;;;;;;27.75;23.25;;;;;;;12.15;72.70;100992.13;4987168;28;20013;-71
2022/04/26 09:47:41;;;;;;;29.35;24.45;;;;;;;12.42;72.61;100988.72;5007191;28;20073;-70
2022/04/26 09:50:09;;;;;;;31.13;25.45;;;;;;;12.59;71.23;101000.44;4975822;28;20905;-72
2022/04/26 09:52:35;;;;;;;37.05;27.10;;;;;;;12.57;71.79;100996.25;4974882;28;20025;-70
2022/04/26 09:55:01;;;;;;;34.83;27.20;;;;;;;12.41;70.82;100996.84;4969925;28;20367;-71
2022/04/26 09:57:27;;;;;;;32.35;26.85;;;;;;;12.60;70.02;101001.28;4970097;28;20034;-71
2022/04/26 09:59:56;;;;;;;32.05;26.35;;;;;;;12.71;69.86;101007.25;4967043;28;20030;-70
2022/04/26 10:02:22;;;;;;;35.60;28.02;;;;;;;12.99;69.81;101007.31;4964791;28;20025;-71
2022/04/26 10:04:49;;;;;;;32.88;28.30;;;;;;;12.99;68.99;101001.97;4984156;28;20006;-69
2022/04/26 10:07:16;;;;;;;36.92;27.90;;;;;;;12.99;68.57;101009.13;4965487;28;20009;-72
2022/04/26 10:09:42;;;;;;;34.97;28.77;;;;;;;13.05;68.27;101013.84;4934628;28;20018;-71
2022/04/26 10:12:07;;;;;;;38.55;30.45;;;;;;;13.13;68.16;101011.28;4969524;28;20364;-72
2022/04/26 10:14:33;;;;;;;37.90;31.75;;;;;;;13.26;67.84;101005.63;5005576;28;20029;-72
2022/04/26 10:16:58;;;;;;;39.80;33.00;;;;;;;13.63;68.11;101003.91;5015001;28;20351;-70
2022/04/26 10:19:38;;;;;;;39.08;32.53;;;;;;;13.65;65.55;101012.56;5010470;28;20044;-71
2022/04/26 10:22:03;;;;;;;40.42;33.38;;;;;;;13.37;66.12;101020.59;4974709;28;20021;-72
2022/04/26 10:24:29;;;;;;;39.75;32.53;;;;;;;13.27;67.58;101017.94;4957411;28;20053;-70
2022/04/26 10:26:54;;;;;;;39.47;32.78;;;;;;;13.25;69.08;101022.56;4974185;28;20017;-69
2022/04/26 10:29:21;;;;;;;37.90;32.20;;;;;;;13.21;68.36;101013.22;4973268;28;20769;-70
2022/04/26 10:31:47;;;;;;;36.83;31.33;;;;;;;13.35;69.25;101022.53;4974326;28;20014;-72
2022/04/26 10:34:29;;;;;;;37.58;31.02;;;;;;;13.26;68.53;101018.94;4978874;28;20069;-69
2022/04/26 10:37:06;;;;;;;37.47;30.42;;;;;;;13.18;68.11;101024.13;4977295;28;20140;-70
2022/04/26 10:39:42;;;;;;;30.63;27.20;;;;;;;13.19;66.29;101023.97;4978160;28;20497;-71
2022/04/26 10:42:17;;;;;;;32.28;28.17;;;;;;;13.12;66.56;101024.72;4993883;28;20009;-69
2022/04/26 10:44:44;;;;;;;32.15;28.75;;;;;;;13.17;66.84;101025.09;5006497;28;20001;-70
2022/04/26 10:47:09;;;;;;;32.10;27.83;;;;;;;13.11;66.74;101029.19;4994582;28;20021;-70
2022/04/26 10:49:40;;;;;;;33.28;29.55;;;;;;;13.64;66.60;101022.38;5016190;27;20756;-69
2022/04/26 10:52:10;;;;;;;32.50;29.10;;;;;;;13.85;66.46;101034.56;5013512;27;20044;-70
2022/04/26 10:54:45;;;;;;;32.70;28.60;;;;;;;14.08;64.04;101032.28;5015204;27;20265;-71
2022/04/26 10:57:10;;;;;;;31.08;27.70;;;;;;;14.63;64.34;101023.25;5015993;27;20372;-71
2022/04/26 10:59:42;;;;;;;27.33;24.45;;;;;;;14.76;61.45;101029.00;4997435;28;20032;-72
2022/04/26 11:02:15;;;;;;;25.15;22.45;;;;;;;15.36;59.67;101034.44;5013600;27;20009;-74
2022/04/26 11:04:41;;;;;;;25.20;22.60;;;;;;;16.26;56.09;101029.31;4996010;28;20018;-70
2022/04/26 11:07:21;;;;;;;25.77;23.17;;;;;;;16.45;56.48;101030.78;4996455;28;20261;-70
2022/04/26 11:09:50;;;;;;;24.63;22.10;;;;;;;16.54;56.21;101034.28;4996173;28;20414;-71
2022/04/26 11:12:20;;;;;;;24.00;21.52;;;;;;;17.21;55.08;101018.94;4994339;28;20898;-70
2022/04/26 11:14:47;;;;;;;24.63;22.20;;;;;;;17.88;53.58;101031.78;4968750;28;20079;-70
2022/04/26 11:17:17;;;;;;;24.45;21.95;;;;;;;18.41;51.00;101026.53;4975030;28;20057;-73
2022/04/26 11:19:53;;;;;;;22.40;20.20;;;;;;;18.60;49.45;101021.66;4959130;28;20857;-71
2022/04/26 11:22:19;;;;;;;22.85;20.70;;;;;;;18.23;51.36;101029.50;4967371;28;20793;-69
2022/04/26 11:30:31;;;;;;;18.35;16.55;;;;;;;16.58;54.67;101024.09;5014066;28;20033;-70
2022/04/26 11:33:01;;;;;;;18.70;16.85;;;;;;;16.20;55.58;101038.00;4995461;28;20010;-69
2022/04/26 11:35:26;;;;;;;19.48;17.55;;;;;;;16.04;56.62;101033.44;4998319;27;20787;-71
2022/04/26 11:37:53;;;;;;;18.90;17.02;;;;;;;16.09;56.11;101036.47;4988118;28;20030;-71
2022/04/26 11:40:31;;;;;;;18.08;16.27;;;;;;;16.06;55.64;101039.47;5015434;27;20013;-72
2022/04/26 11:42:59;;;;;;;19.35;17.38;;;;;;;16.18;55.46;101034.63;4997148;28;20005;-69
2022/04/26 11:45:28;;;;;;;19.08;17.27;;;;;;;16.25;54.98;101034.81;4984462;27;20024;-70
2022/04/26 11:47:55;;;;;;;19.48;17.60;;;;;;;16.42;55.16;101039.13;4997109;28;20096;-71
2022/04/26 11:50:22;;;;;;;21.17;19.08;;;;;;;16.25;55.24;101035.63;4995884;27;20065;-71
2022/04/26 11:52:49;;;;;;;22.10;19.70;;;;;;;16.46;54.90;101031.63;5009906;28;20441;-72
2022/04/26 11:55:43;;;;;;;23.95;21.75;;;;;;;16.43;54.80;101040.81;4996097;27;20029;-71
2022/04/26 11:58:16;;;;;;;;;;;;;;;16.63;54.03;101043.94;5011969;28;20139;-70
2022/04/26 12:01:05;;;;;;;20.58;18.52;;;;;;;16.44;54.64;101039.81;5013838;28;20004;-72
2022/04/26 12:03:46;;;;;;;19.25;17.25;;;;;;;16.65;53.93;101036.63;5000122;28;20010;-71
2022/04/26 12:06:12;;;;;;;17.88;16.27;;;;;;;17.07;51.67;101039.22;5017942;28;20384;-72
2022/04/26 12:08:48;;;;;;;18.02;16.27;;;;;;;16.92;51.66;101036.41;5000025;28;19997;-71
2022/04/26 12:11:21;;;;;;;17.85;16.08;;;;;;;16.93;51.64;101038.06;5015904;28;20116;-71
2022/04/26 12:14:06;;;;;;;16.83;15.38;;;;;;;17.04;51.79;101037.72;5004928;28;20006;-71
2022/04/26 12:16:32;;;;;;;16.95;14.98;;;;;;;17.66;49.75;101033.41;4992210;28;20045;-70
2022/04/26 12:19:02;;;;;;;16.40;14.80;;;;;;;18.51;48.49;101027.13;4983084;28;20136;-71
2022/04/26 12:21:27;;;;;;;15.98;14.35;;;;;;;19.48;46.80;101025.34;4979988;28;20128;-73
2022/04/26 12:24:15;;;;;;;16.08;13.75;;;;;;;20.30;44.85;101025.16;4978656;28;20022;-70
2022/04/26 12:27:00;;;;;;;15.20;13.55;;;;;;;21.13;42.81;101009.13;4981048;28;20442;-71
2022/04/26 12:29:35;;;;;;;14.38;12.95;;;;;;;21.17;41.21;101009.59;4964661;28;20451;-71
2022/04/26 12:32:10;;;;;;;12.85;11.63;;;;;;;21.09;42.92;101010.56;5018443;28;20001;-71
2022/04/26 12:34:36;;;;;;;13.43;12.32;;;;;;;20.26;42.64;101019.31;4994741;27;20040;-71
2022/04/26 12:37:16;;;;;;;14.65;11.50;;;;;;;20.84;42.31;101008.38;4999335;28;20049;-71
2022/04/26 12:39:43;;;;;;;12.82;11.63;;;;;;;20.62;40.86;101001.41;5014558;28;20533;-71
2022/04/26 12:42:16;;;;;;;12.90;11.30;;;;;;;20.13;42.30;101017.34;4996011;28;20017;-72
2022/04/26 12:44:58;;;;;;;12.10;10.80;;;;;;;19.28;44.45;101005.50;4996303;28;20009;-72
2022/04/26 12:50:28;;;;;;;11.93;10.70;;;;;;;18.12;45.44;101017.41;5018152;27;20596;-71
2022/04/26 12:53:07;;;;;;;13.88;10.90;;;;;;;18.45;44.44;101016.28;5017236;28;20013;-71
2022/04/26 12:55:36;;;;;;;11.88;10.77;;;;;;;19.00;44.69;101000.81;4991163;28;20090;-72
2022/04/26 12:58:12;;;;;;;12.13;10.88;;;;;;;19.18;45.01;101022.72;5002218;28;20033;-71
2022/04/26 13:00:43;;;;;;;12.55;11.27;;;;;;;18.96;44.30;101007.56;5008777;28;20026;-69
2022/04/26 13:03:09;;;;;;;11.82;10.88;;;;;;;18.84;43.26;101009.84;4991963;28;20010;-70
2022/04/26 13:05:41;;;;;;;12.60;11.20;;;;;;;18.24;43.01;101014.28;5007187;28;20093;-69
2022/04/26 13:08:07;;;;;;;12.88;11.25;;;;;;;17.89;45.34;101011.19;4991103;28;20049;-69
2022/04/26 13:10:33;;;;;;;13.60;11.95;;;;;;;17.39;47.27;101008.81;4994837;28;20017;-70
2022/04/26 13:12:58;;;;;;;11.93;10.82;;;;;;;17.17;47.22;101013.94;5001921;28;20083;-70
2022/04/26 13:15:24;;;;;;;11.75;10.75;;;;;;;17.12;46.02;101010.94;4996129;28;20014;-69
2022/04/26 13:17:49;;;;;;;12.13;10.93;;;;;;;17.02;47.96;101010.31;4996785;28;20504;-70
2022/04/26 13:20:15;;;;;;;8.98;8.38;;;;;;;17.11;48.54;101006.59;4982982;27;20934;-69
2022/04/26 13:22:40;;;;;;;11.02;9.48;;;;;;;17.54;47.90;101005.38;4986822;28;20503;-71
2022/04/26 13:25:06;;;;;;;10.25;9.10;;;;;;;18.85;45.93;101007.00;5000729;28;20029;-71
2022/04/26 13:27:32;;;;;;;11.95;10.95;;;;;;;19.97;45.13;101012.25;4995192;28;20003;-70
2022/04/26 13:29:58;;;;;;;10.98;10.07;;;;;;;20.76;42.21;101003.97;4990130;28;20250;-70
2022/04/26 13:32:23;;;;;;;13.13;12.00;;;;;;;20.32;39.95;101012.31;5000263;28;20251;-70
2022/04/26 13:34:50;;;;;;;10.95;10.13;;;;;;;21.26;40.12;100998.44;4996263;28;20229;-72
2022/04/26 13:37:17;;;;;;;11.70;10.70;;;;;;;20.88;40.74;101008.81;4986950;28;20018;-71
2022/04/26 13:39:45;;;;;;;13.52;12.32;;;;;;;19.86;40.97;101014.41;4991598;28;20649;-72
2022/04/26 13:42:11;;;;;;;12.48;11.38;;;;;;;19.16;43.72;101008.66;4995180;28;20058;-70
2022/04/26 13:44:36;;;;;;;13.20;11.90;;;;;;;18.96;45.01;101008.38;5008381;28;20006;-70
2022/04/26 13:47:04;;;;;;;12.30;11.20;;;;;;;19.18;45.00;101011.97;5003511;28;20935;-70
2022/04/26 13:49:31;;;;;;;14.15;12.85;;;;;;;19.12;44.56;101012.75;4990792;28;20021;-71
2022/04/26 13:51:57;;;;;;;13.05;11.98;;;;;;;19.37;44.52;101009.72;4999678;28;20009;-71
2022/04/26 13:54:23;;;;;;;12.85;11.38;;;;;;;18.90;45.03;101030.59;5004630;27;20048;-71
2022/04/26 13:56:49;;;;;;;12.98;11.77;;;;;;;18.42;47.09;101028.19;4991578;28;20923;-71
2022/04/26 13:59:15;;;;;;;15.10;12.27;;;;;;;17.73;47.96;101037.06;5012192;28;20093;-70
2022/04/26 14:01:41;;;;;;;13.48;12.10;;;;;;;17.35;48.47;101031.56;5015341;28;20029;-71
2022/04/26 14:04:06;;;;;;;13.25;11.85;;;;;;;17.16;49.72;101038.16;4958143;28;20670;-71
2022/04/26 14:06:31;;;;;;;13.40;12.02;;;;;;;16.93;49.98;101044.25;4987333;28;20104;-72
2022/04/26 14:08:57;;;;;;;13.50;12.30;;;;;;;16.75;50.29;101052.47;4988747;28;20393;-71
2022/04/26 14:11:22;;;;;;;6.57;5.93;;;;;;;16.30;49.27;101051.16;4987414;28;20026;-70
2022/04/26 14:22:00;;;;;;;;;;;;;;;14.17;54.27;101063.31;4994276;28;20318;-70
2022/04/26 14:24:25;;;;;;;3.17;3.08;;;;;;;14.13;56.72;101045.97;5011825;28;20004;-70
2022/04/26 14:26:51;;;;;;;3.60;3.38;;;;;;;13.62;57.72;101044.78;5005256;28;20029;-70
2022/04/26 14:29:16;;;;;;;4.00;3.70;;;;;;;13.32;59.89;101044.91;5012164;27;20998;-70
2022/04/26 14:31:42;;;;;;;4.47;4.20;;;;;;;13.45;61.34;101055.22;4982850;27;20013;-72
2022/04/26 14:34:08;;;;;;;4.03;3.75;;;;;;;13.32;62.22;101062.69;4994864;27;20007;-70
2022/04/26 14:36:33;;;;;;;4.38;4.10;;;;;;;13.26;63.59;101066.75;5007924;27;20060;-71
2022/04/26 14:38:59;;;;;;;6.07;4.30;;;;;;;12.88;65.28;101052.63;4997917;27;20121;-71
2022/04/26 14:41:26;;;;;;;4.70;4.40;;;;;;;12.63;66.97;101075.31;4986120;27;20037;-69
2022/04/26 14:43:52;;;;;;;7.78;5.22;;;;;;;12.34;70.58;101118.66;5003511;27;20033;-70
2022/04/26 14:46:17;;;;;;;5.68;4.75;;;;;;;12.46;72.73;101143.25;4954438;27;20443;-70
2022/04/26 14:48:44;;;;;;;8.35;5.88;;;;;;;11.96;74.93;101166.22;4969822;27;20096;-72
2022/04/26 14:51:10;;;;;;;8.05;5.63;;;;;;;11.66;75.47;101140.53;5006933;27;20017;-71
2022/04/26 14:53:35;;;;;;;7.63;6.00;;;;;;;11.42;76.34;101149.66;4972119;27;20880;-72
2022/04/26 14:56:00;;;;;;;8.77;6.40;;;;;;;11.51;79.68;101153.31;4994490;27;20017;-71
2022/04/26 14:58:26;;;;;;;6.93;5.93;;;;;;;11.49;79.60;101155.25;5000806;27;20924;-71
2022/04/26 15:00:52;;;;;;;10.95;6.18;;;;;;;11.34;80.12;101146.81;4977292;27;20025;-70
2022/04/26 15:03:17;;;;;;;7.45;6.72;;;;;;;11.16;80.81;101149.25;4992946;27;20009;-71
2022/04/26 15:05:43;;;;;;;8.10;6.05;;;;;;;11.06;82.13;101143.88;4977502;27;20507;-69
2022/04/26 15:10:52;;;;;;;7.10;6.32;;;;;;;11.04;83.21;101152.91;5007179;27;20926;-72
2022/04/26 15:18:45;;;;;;;7.47;6.60;;;;;;;10.86;84.17;101157.94;4982603;27;20059;-71
2022/04/26 15:21:11;;;;;;;9.27;6.88;;;;;;;10.95;86.00;101158.00;4964624;27;20642;-71
2022/04/26 15:23:36;;;;;;;7.78;6.55;;;;;;;11.09;85.43;101163.97;4966216;27;20439;-72
2022/04/26 15:26:09;;;;;;;7.25;6.65;;;;;;;11.09;85.07;101159.50;4962078;27;20021;-70
2022/04/26 15:28:34;;;;;;;7.60;7.00;;;;;;;11.17;84.74;101158.88;4965525;27;20060;-70
2022/04/26 15:31:01;;;;;;;7.47;6.90;;;;;;;11.22;84.04;101155.81;4993528;27;20634;-71
2022/04/26 15:33:26;;;;;;;9.25;8.25;;;;;;;11.23;84.31;101157.50;4980476;27;20018;-71
2022/04/26 15:35:51;;;;;;;10.35;9.10;;;;;;;11.39;84.86;101159.69;5003507;27;20103;-71